createdAt,value
2022-08-07T00:02:36.132Z,6.80
2022-08-07T00:05:04.250Z,6.40
2022-08-07T00:07:39.236Z,5.97
2022-08-07T03:02:55.093Z,4.00
2022-08-07T03:05:25.876Z,6.03
2022-08-07T03:08:07.780Z,4.87
2022-08-07T03:10:57.079Z,7.50
2022-08-07T03:13:38.741Z,8.43
2022-08-07T03:16:13.690Z,4.93
2022-08-07T03:18:46.004Z,7.47
2022-08-07T03:21:28.794Z,6.00
2022-08-07T03:24:20.820Z,6.50
2022-08-07T03:27:00.295Z,4.67
2022-08-07T03:29:46.094Z,5.23
2022-08-07T03:32:24.537Z,5.70
2022-08-07T03:35:17.556Z,8.37
2022-08-07T03:37:53.982Z,5.53
2022-08-07T03:40:27.433Z,5.33
2022-08-07T03:43:13.780Z,5.30
2022-08-07T03:45:53.405Z,5.73
2022-08-07T03:48:27.517Z,5.73
2022-08-07T03:51:04.044Z,5.23
2022-08-07T03:54:05.704Z,5.07
2022-08-07T03:56:36.948Z,6.57
2022-08-07T03:59:13.328Z,5.97
2022-08-07T04:01:49.802Z,5.37
2022-08-07T04:04:27.235Z,6.13
2022-08-07T04:07:27.034Z,5.33
2022-08-07T04:10:02.931Z,5.27
2022-08-07T04:12:39.904Z,3.73
2022-08-07T04:15:15.496Z,4.60
2022-08-07T04:18:56.413Z,5.30
2022-08-07T04:20:54.703Z,6.73
2022-08-07T04:24:03.547Z,4.77
2022-08-07T04:26:43.734Z,6.07
2022-08-07T04:29:48.720Z,4.30
2022-08-07T04:32:58.545Z,4.40
2022-08-07T04:35:51.532Z,7.17
2022-08-07T04:38:43.543Z,6.23
2022-08-07T04:41:23.396Z,5.57
2022-08-07T04:44:13.259Z,5.27
2022-08-07T04:47:08.548Z,5.90
2022-08-07T04:50:03.970Z,6.07
2022-08-07T04:52:52.455Z,5.77
2022-08-07T04:58:12.100Z,6.10
2022-08-07T04:59:18.364Z,7.40
2022-08-07T05:01:40.472Z,10.27
2022-08-07T05:04:17.242Z,7.47
2022-08-07T05:06:57.828Z,5.10
2022-08-07T05:09:45.489Z,5.33
2022-08-07T05:12:26.794Z,6.23
2022-08-07T05:15:21.817Z,4.73
2022-08-07T05:17:58.388Z,5.10
2022-08-07T05:20:36.125Z,5.73
2022-08-07T05:23:15.339Z,4.93
2022-08-07T05:26:11.638Z,5.10
2022-08-07T05:28:40.468Z,5.07
2022-08-07T05:31:14.670Z,5.10
2022-08-07T05:34:01.202Z,5.57
2022-08-07T05:36:39.093Z,6.33
2022-08-07T05:40:14.104Z,5.03
2022-08-07T05:42:07.581Z,6.20
2022-08-07T05:44:52.804Z,7.53
2022-08-07T05:47:38.455Z,5.07
2022-08-07T05:50:22.322Z,6.93
2022-08-07T05:52:51.371Z,4.73
2022-08-07T05:55:19.561Z,8.00
2022-08-07T05:57:50.518Z,7.00
2022-08-07T06:00:21.494Z,3.43
2022-08-07T06:03:00.766Z,6.63
2022-08-07T06:05:31.449Z,4.47
2022-08-07T06:08:29.275Z,4.67
2022-08-07T06:10:55.111Z,4.63
2022-08-07T06:14:10.549Z,6.93
2022-08-07T06:16:17.449Z,4.43
2022-08-07T06:18:51.482Z,4.30
2022-08-07T06:22:16.732Z,4.30
2022-08-07T06:24:46.013Z,3.70
2022-08-07T06:27:03.503Z,3.80
2022-08-07T06:29:33.985Z,4.73
2022-08-07T06:32:04.569Z,3.73
2022-08-07T06:34:33.541Z,3.43
2022-08-07T06:37:02.611Z,3.73
2022-08-07T06:40:13.488Z,3.07
2022-08-07T06:42:35.150Z,2.63
2022-08-07T06:45:18.239Z,3.33
2022-08-07T06:47:58.452Z,3.87
2022-08-07T06:50:36.056Z,3.37
2022-08-07T06:53:49.122Z,2.20
2022-08-07T06:56:01.299Z,3.93
2022-08-07T06:58:39.825Z,3.50
2022-08-07T07:01:42.117Z,3.87
2022-08-07T07:04:32.424Z,2.70
2022-08-07T07:07:18.957Z,2.23
2022-08-07T07:10:04.169Z,3.03
2022-08-07T07:12:48.962Z,3.50
2022-08-07T07:15:23.877Z,1.83
2022-08-07T07:18:00.158Z,2.33
2022-08-07T07:20:35.838Z,2.60
2022-08-07T07:24:05.645Z,3.03
2022-08-07T07:26:35.721Z,3.33
2022-08-07T07:29:57.269Z,1.97
2022-08-07T07:32:14.440Z,1.77
2022-08-07T07:34:50.975Z,4.53
2022-08-07T07:37:49.619Z,1.50
2022-08-07T07:40:16.842Z,3.07
2022-08-07T07:42:54.185Z,3.10
2022-08-07T07:46:39.960Z,1.50
2022-08-07T07:48:34.898Z,1.97
2022-08-07T07:51:07.955Z,3.43
2022-08-07T07:53:50.338Z,2.97
2022-08-07T07:56:30.409Z,1.93
2022-08-07T07:59:01.885Z,2.10
2022-08-07T08:02:01.666Z,3.27
2022-08-07T08:04:25.941Z,3.27
2022-08-07T08:06:57.089Z,1.90
2022-08-07T08:09:52.509Z,1.73
2022-08-07T08:12:51.145Z,1.77
2022-08-07T08:15:14.477Z,2.70
2022-08-07T08:18:36.480Z,2.53
2022-08-07T08:20:36.550Z,2.27
2022-08-07T08:23:23.937Z,1.27
2022-08-07T08:26:22.099Z,3.07
2022-08-07T08:28:55.757Z,2.33
2022-08-07T08:31:30.230Z,1.53
2022-08-07T08:34:26.829Z,1.33
2022-08-07T08:36:59.240Z,1.63
2022-08-07T08:39:39.435Z,1.00
2022-08-07T08:42:28.365Z,2.10
2022-08-07T08:45:13.058Z,1.17
2022-08-07T08:47:55.078Z,2.00
2022-08-07T08:50:28.427Z,3.07
2022-08-07T08:53:16.548Z,0.90
2022-08-07T08:55:55.496Z,1.67
2022-08-07T08:58:42.023Z,2.23
2022-08-07T09:01:24.309Z,0.77
2022-08-07T09:04:25.721Z,0.90
2022-08-07T09:07:03.629Z,1.00
2022-08-07T09:10:10.869Z,0.80
2022-08-07T09:12:53.302Z,0.90
2022-08-07T09:16:20.197Z,2.13
2022-08-07T09:19:50.625Z,0.70
2022-08-07T09:24:27.270Z,1.40
2022-08-07T09:25:14.850Z,1.67
2022-08-07T09:28:00.690Z,1.50
2022-08-07T09:30:41.167Z,1.80
2022-08-07T09:33:53.060Z,1.53
2022-08-07T09:36:21.904Z,3.40
2022-08-07T09:39:06.329Z,3.10
2022-08-07T09:42:05.665Z,1.13
2022-08-07T09:47:26.146Z,3.73
2022-08-07T09:48:00.218Z,1.57
2022-08-07T09:50:43.171Z,2.13
2022-08-07T09:53:14.378Z,2.63
2022-08-07T09:56:05.149Z,1.17
2022-08-07T09:59:46.492Z,1.60
2022-08-07T10:04:05.848Z,1.20
2022-08-07T10:07:04.194Z,1.10
2022-08-07T10:19:20.219Z,3.13
2022-08-07T10:22:45.225Z,1.80
2022-08-07T10:26:17.759Z,1.87
2022-08-07T10:30:12.103Z,1.03
2022-08-07T10:34:15.416Z,0.70
2022-08-07T10:36:47.955Z,0.73
2022-08-07T10:39:41.362Z,0.97
2022-08-07T10:42:31.114Z,1.17
2022-08-07T10:45:14.415Z,1.07
2022-08-07T10:51:57.395Z,1.60
2022-08-07T10:54:36.349Z,3.43
2022-08-07T11:02:36.058Z,1.47
2022-08-07T11:05:35.638Z,1.03
2022-08-07T11:08:31.061Z,2.30
2022-08-07T11:11:07.379Z,1.80
2022-08-07T11:14:44.699Z,1.37
2022-08-07T11:16:32.739Z,1.27
2022-08-07T11:19:07.796Z,0.97
2022-08-07T11:21:46.533Z,1.57
2022-08-07T11:24:21.907Z,1.80
2022-08-07T11:27:01.173Z,0.57
2022-08-07T11:29:42.924Z,1.33
2022-08-07T11:32:25.760Z,1.00
2022-08-07T11:36:34.052Z,1.63
2022-08-07T11:40:05.676Z,2.83
2022-08-07T11:43:54.501Z,1.70
2022-08-07T11:56:26.752Z,1.60
2022-08-07T12:00:12.560Z,1.10
2022-08-07T12:02:17.577Z,1.47
2022-08-07T12:05:08.974Z,3.13
2022-08-07T12:07:59.613Z,1.93
2022-08-07T12:10:41.601Z,1.07
2022-08-07T12:13:37.175Z,2.67
2022-08-07T12:16:12.888Z,1.10
2022-08-07T12:19:06.304Z,0.83
2022-08-07T12:22:36.720Z,1.83
2022-08-07T12:24:40.215Z,1.43
2022-08-07T12:27:16.287Z,1.83
2022-08-07T12:29:55.067Z,1.53
2022-08-07T12:32:31.134Z,1.60
2022-08-07T12:35:05.740Z,1.67
2022-08-07T12:38:09.279Z,0.80
2022-08-07T12:40:47.335Z,1.13
2022-08-07T12:44:02.284Z,1.23
2022-08-07T12:46:38.464Z,0.93
2022-08-07T12:52:46.422Z,2.27
2022-08-07T12:55:40.967Z,1.90
2022-08-07T12:58:13.765Z,2.73
2022-08-07T13:00:51.751Z,0.67
2022-08-07T13:04:02.597Z,1.30
2022-08-07T13:06:54.507Z,1.70
2022-08-07T13:10:29.289Z,3.33
2022-08-07T13:12:50.841Z,1.90
2022-08-07T13:15:35.776Z,6.27
2022-08-07T13:18:25.797Z,1.30
2022-08-07T13:21:07.071Z,1.40
2022-08-07T13:24:01.138Z,1.47
2022-08-07T13:26:37.038Z,1.47
2022-08-07T13:29:13.068Z,1.40
2022-08-07T13:31:57.975Z,1.20
2022-08-07T13:34:39.521Z,0.80
2022-08-07T13:37:25.611Z,2.80
2022-08-07T13:40:36.430Z,1.77
2022-08-07T13:42:58.903Z,1.77
2022-08-07T13:46:12.072Z,1.40
2022-08-07T13:48:27.857Z,2.50
2022-08-07T13:51:28.464Z,1.63
2022-08-07T13:54:02.035Z,0.83
2022-08-07T13:56:36.188Z,1.33
2022-08-07T13:59:13.709Z,1.67
2022-08-07T14:01:51.542Z,1.63
2022-08-07T14:04:36.203Z,1.07
2022-08-07T14:07:09.734Z,2.87
2022-08-07T14:10:12.314Z,2.50
2022-08-07T14:12:41.920Z,2.67
2022-08-07T14:15:31.643Z,2.00
2022-08-07T14:18:27.473Z,1.37
2022-08-07T14:22:00.949Z,1.20
2022-08-07T14:24:07.640Z,2.00
2022-08-07T14:30:06.482Z,1.50
2022-08-07T14:32:37.919Z,3.07
2022-08-07T14:35:07.811Z,1.40
2022-08-07T14:37:45.668Z,1.37
2022-08-07T14:40:36.132Z,1.10
2022-08-07T14:43:55.776Z,0.80
2022-08-07T14:45:59.719Z,1.30
2022-08-07T14:51:22.041Z,2.53
2022-08-07T14:54:09.927Z,3.23
2022-08-07T14:56:44.705Z,1.73
2022-08-07T15:00:03.738Z,2.97
2022-08-07T15:02:31.656Z,1.60
2022-08-07T15:05:02.255Z,1.53
2022-08-07T15:07:51.160Z,2.90
2022-08-07T15:13:19.456Z,1.93
2022-08-07T15:15:53.487Z,2.23
2022-08-07T15:21:59.563Z,2.40
2022-08-07T15:25:15.838Z,1.77
2022-08-07T15:30:16.817Z,1.00
2022-08-07T15:33:01.402Z,1.83
2022-08-07T15:36:00.432Z,1.10
2022-08-07T15:41:23.954Z,2.33
2022-08-07T15:44:12.391Z,1.70
2022-08-07T15:46:48.563Z,0.73
2022-08-07T15:50:04.511Z,1.67
2022-08-07T15:52:21.950Z,1.27
2022-08-07T15:55:02.766Z,1.93
2022-08-07T15:57:39.923Z,3.37
2022-08-07T16:00:31.897Z,2.13
2022-08-07T16:03:05.888Z,2.17
2022-08-07T16:05:38.522Z,1.50
2022-08-07T16:08:30.668Z,2.83
2022-08-07T16:11:04.602Z,3.13
2022-08-07T16:14:03.183Z,3.43
2022-08-07T16:16:51.124Z,1.53
2022-08-07T16:19:59.570Z,3.67
2022-08-07T16:22:54.245Z,3.80
2022-08-07T16:26:01.600Z,2.13
2022-08-07T16:30:06.345Z,2.97
2022-08-07T16:31:58.505Z,2.20
2022-08-07T16:34:40.893Z,1.23
2022-08-07T16:38:04.322Z,2.83
2022-08-07T16:41:15.324Z,2.87
2022-08-07T16:44:47.377Z,2.10
2022-08-07T16:47:57.022Z,2.47
2022-08-07T16:51:13.540Z,1.30
2022-08-07T16:54:06.348Z,1.50
2022-08-07T16:56:59.155Z,1.83
2022-08-07T16:59:46.048Z,2.40
2022-08-07T17:02:51.149Z,1.23
2022-08-07T17:06:19.818Z,1.27
2022-08-07T17:09:04.354Z,2.23
2022-08-07T17:12:03.921Z,5.23
2022-08-07T17:14:31.163Z,1.87
2022-08-07T17:17:05.222Z,1.97
2022-08-07T17:20:01.039Z,1.93
2022-08-07T17:22:37.753Z,2.33
2022-08-07T17:25:17.472Z,1.67
2022-08-07T17:28:00.535Z,1.87
2022-08-07T17:30:37.542Z,2.23
2022-08-07T17:34:09.249Z,2.50
2022-08-07T17:36:21.508Z,5.00
2022-08-07T17:39:01.715Z,2.23
2022-08-07T17:42:02.859Z,1.30
2022-08-07T17:44:49.975Z,1.63
2022-08-07T17:47:42.059Z,1.83
2022-08-07T17:50:19.919Z,2.03
2022-08-07T17:52:55.371Z,2.53
2022-08-07T17:56:00.567Z,2.60
2022-08-07T17:59:26.055Z,2.13
2022-08-07T18:02:14.638Z,2.50
2022-08-07T18:04:56.715Z,1.60
2022-08-07T18:07:43.606Z,2.17
2022-08-07T18:10:32.099Z,2.10
2022-08-07T18:13:40.459Z,3.50
2022-08-07T18:16:32.642Z,2.37
2022-08-07T18:21:11.784Z,2.17
2022-08-07T18:22:29.277Z,2.30
2022-08-07T18:25:19.079Z,2.57
2022-08-07T18:28:33.908Z,3.13
2022-08-07T18:31:09.565Z,1.97
2022-08-07T18:34:37.938Z,2.37
2022-08-07T18:38:58.895Z,2.93
2022-08-07T18:41:10.064Z,1.73
2022-08-07T18:45:40.201Z,3.17
2022-08-07T18:48:01.547Z,1.60
2022-08-07T18:52:35.223Z,1.40
2022-08-07T18:54:40.261Z,2.33
2022-08-07T19:02:34.197Z,2.97
2022-08-07T19:05:18.716Z,2.20
2022-08-07T19:08:20.274Z,2.97
2022-08-07T19:11:35.887Z,2.40
2022-08-07T19:18:05.235Z,2.97
2022-08-07T19:21:09.762Z,2.10
2022-08-07T19:23:58.767Z,2.53
2022-08-07T19:28:57.683Z,2.60
2022-08-07T19:33:44.289Z,1.90
2022-08-07T19:41:05.101Z,3.00
2022-08-07T19:43:48.889Z,2.97
2022-08-07T19:46:29.190Z,7.27
2022-08-07T19:49:03.719Z,10.83
2022-08-07T19:51:51.701Z,7.73
2022-08-07T19:54:33.412Z,4.43
2022-08-07T19:58:04.470Z,6.57
2022-08-07T20:00:10.430Z,4.07
2022-08-07T20:02:52.113Z,4.07
2022-08-07T20:05:25.334Z,2.37
2022-08-07T20:08:00.681Z,5.10
2022-08-07T20:10:36.678Z,3.37
2022-08-07T20:13:33.061Z,2.73
2022-08-07T20:16:07.513Z,4.13
2022-08-07T20:18:46.053Z,3.00
2022-08-07T20:21:21.771Z,2.90
2022-08-07T20:23:57.842Z,2.43
2022-08-07T20:26:38.647Z,3.77
2022-08-07T20:29:46.872Z,2.67
2022-08-07T20:32:07.166Z,4.67
2022-08-07T20:34:50.694Z,2.17
2022-08-07T20:37:26.351Z,3.13
2022-08-07T20:40:02.159Z,3.33
2022-08-07T20:42:35.352Z,2.70
2022-08-07T20:45:33.622Z,2.37
2022-08-07T20:47:58.712Z,3.07
2022-08-07T20:50:30.507Z,3.80
2022-08-07T20:53:00.738Z,3.20
2022-08-07T20:55:32.271Z,2.20
2022-08-07T20:58:09.051Z,2.97
2022-08-07T21:00:56.285Z,2.80
2022-08-07T21:03:27.897Z,2.13
2022-08-07T21:06:00.901Z,3.83
2022-08-07T21:08:39.214Z,2.87
2022-08-07T21:11:14.494Z,2.97
2022-08-07T21:14:29.326Z,2.77
2022-08-07T21:16:57.057Z,3.23
2022-08-07T21:19:51.730Z,2.90
2022-08-07T21:22:31.498Z,5.10
2022-08-07T21:25:13.400Z,4.37
2022-08-07T21:28:09.157Z,3.00
2022-08-07T21:30:46.582Z,5.07
2022-08-07T21:33:22.553Z,4.03
2022-08-07T21:36:12.015Z,3.77
2022-08-07T21:39:47.691Z,4.20
2022-08-07T21:42:37.645Z,3.10
2022-08-07T21:45:00.877Z,3.03
2022-08-07T21:47:59.185Z,2.93
2022-08-07T21:50:36.571Z,3.03
2022-08-07T21:53:11.115Z,3.47
2022-08-07T21:55:48.994Z,4.50
2022-08-07T21:58:32.981Z,5.03
2022-08-07T22:01:08.517Z,2.50
2022-08-07T22:03:47.790Z,3.53
2022-08-07T22:06:30.307Z,3.63
2022-08-07T22:09:07.242Z,3.93
2022-08-07T22:12:05.464Z,3.27
2022-08-07T22:14:59.930Z,3.80
2022-08-07T22:17:36.779Z,3.27
2022-08-07T22:20:23.468Z,2.93
2022-08-07T22:22:57.959Z,4.53
2022-08-07T22:25:36.957Z,4.83
2022-08-07T22:28:30.851Z,4.67
2022-08-07T22:31:06.788Z,3.77
2022-08-07T22:33:56.607Z,3.47
2022-08-07T22:36:48.320Z,3.23
2022-08-07T22:39:30.405Z,2.80
2022-08-07T22:42:25.800Z,3.73
2022-08-07T22:46:21.436Z,3.33
2022-08-07T22:48:13.771Z,2.50
2022-08-07T22:51:17.523Z,3.67
2022-08-07T22:54:07.332Z,3.33
2022-08-07T22:56:52.498Z,4.67
2022-08-07T22:59:49.711Z,2.53
2022-08-07T23:02:31.214Z,5.67
2022-08-07T23:06:07.812Z,3.70
2022-08-07T23:08:32.603Z,6.00
2022-08-07T23:11:18.842Z,3.70
2022-08-07T23:14:15.145Z,4.50
2022-08-07T23:17:03.853Z,8.23
2022-08-07T23:20:03.569Z,4.73
2022-08-07T23:22:45.396Z,5.50
2022-08-07T23:25:28.293Z,7.00
2022-08-07T23:28:48.890Z,4.50
2022-08-07T23:32:49.386Z,5.83
2022-08-07T23:34:40.662Z,9.77
2022-08-07T23:37:35.998Z,4.17
2022-08-07T23:40:23.205Z,3.07
2022-08-07T23:43:02.039Z,4.13
2022-08-07T23:46:02.623Z,6.53
2022-08-07T23:48:56.145Z,3.43
2022-08-07T23:52:58.763Z,5.17
2022-08-07T23:54:36.072Z,4.73
2022-08-07T23:57:18.774Z,4.20
